createdAt,value
2018-03-04T12:10:10.213Z,13.27
2018-03-04T12:12:37.982Z,13.20
2018-03-04T12:15:05.798Z,13.55
2018-03-04T12:17:33.502Z,13.36
2018-03-04T12:20:01.229Z,13.82
2018-03-04T12:22:28.924Z,13.74
2018-03-04T12:24:56.745Z,13.57
2018-03-04T12:27:24.561Z,13.86
2018-03-04T12:29:52.958Z,13.56
2018-03-04T12:32:20.798Z,13.87
2018-03-04T12:34:48.560Z,13.79
2018-03-04T12:37:16.326Z,13.91
2018-03-04T12:39:44.188Z,14.12
2018-03-04T12:42:12.017Z,14.23
2018-03-04T12:44:39.818Z,13.78
2018-03-04T12:47:07.683Z,14.20
2018-03-04T12:49:35.451Z,14.80
2018-03-04T12:52:03.209Z,14.78
2018-03-04T12:54:31.077Z,14.10
2018-03-04T12:56:58.942Z,14.29
2018-03-04T12:59:26.802Z,14.05
2018-03-04T13:01:54.571Z,13.99
2018-03-04T13:04:22.281Z,14.18
2018-03-04T13:06:50.001Z,14.00
2018-03-04T13:09:17.863Z,14.06
2018-03-04T13:11:45.626Z,14.23
2018-03-04T13:14:13.821Z,14.43
2018-03-04T13:16:41.560Z,14.46
2018-03-04T13:19:09.427Z,14.22
2018-03-04T13:21:37.150Z,14.20
2018-03-04T13:24:05.055Z,14.51
2018-03-04T13:26:32.809Z,14.26
2018-03-04T13:29:00.584Z,13.94
2018-03-04T13:31:28.448Z,14.50
2018-03-04T13:33:56.108Z,14.36
2018-03-04T13:36:23.827Z,14.73
2018-03-04T13:38:51.636Z,14.62
2018-03-04T13:41:19.304Z,14.33
2018-03-04T13:43:46.963Z,14.43
2018-03-04T13:46:14.738Z,14.69
2018-03-04T13:48:42.486Z,14.37
2018-03-04T13:51:10.203Z,14.63
2018-03-04T13:53:37.969Z,14.74
2018-03-04T13:56:05.737Z,14.73
2018-03-04T13:58:33.438Z,14.83
2018-03-04T14:01:01.302Z,14.46
2018-03-04T14:03:29.585Z,14.21
2018-03-04T14:05:57.349Z,14.21
2018-03-04T14:08:25.113Z,14.13
2018-03-04T14:10:52.876Z,14.31
2018-03-04T14:13:20.604Z,14.22
2018-03-04T14:15:48.345Z,14.18
2018-03-04T14:18:16.086Z,14.10
2018-03-04T14:20:43.922Z,13.95
2018-03-04T14:23:11.788Z,14.13
2018-03-04T14:25:39.550Z,13.86
2018-03-04T14:28:07.417Z,14.22
2018-03-04T14:30:35.192Z,14.19
2018-03-04T14:33:02.947Z,14.23
2018-03-04T14:35:30.755Z,14.11
2018-03-04T14:37:58.573Z,14.06
2018-03-04T14:40:26.438Z,14.18
2018-03-04T14:42:54.155Z,13.82
2018-03-04T14:45:21.971Z,14.08
2018-03-04T14:47:49.728Z,14.02
2018-03-04T14:50:17.466Z,14.03
2018-03-04T14:52:47.108Z,13.89
2018-03-04T14:55:14.964Z,13.98
2018-03-04T14:57:42.808Z,14.09
2018-03-04T15:00:10.593Z,14.08
2018-03-04T15:02:38.356Z,14.11
2018-03-04T15:05:06.120Z,14.10
2018-03-04T15:07:33.887Z,14.17
2018-03-04T15:10:02.341Z,14.24
2018-03-04T15:12:30.083Z,14.18
2018-03-04T15:14:57.850Z,13.93
2018-03-04T15:17:25.654Z,14.16
2018-03-04T15:19:53.319Z,14.25
2018-03-04T15:22:21.180Z,14.29
2018-03-04T15:24:48.945Z,14.29
2018-03-04T15:27:16.684Z,14.28
2018-03-04T15:29:44.603Z,14.35
2018-03-04T15:32:12.440Z,14.35
2018-03-04T15:34:40.163Z,14.32
2018-03-04T15:37:07.926Z,14.32
2018-03-04T15:39:35.732Z,14.19
2018-03-04T15:42:03.496Z,14.06
2018-03-04T15:44:31.359Z,13.92
2018-03-04T15:46:59.023Z,13.72
2018-03-04T15:49:26.735Z,13.53
2018-03-04T15:51:54.504Z,13.55
2018-03-04T15:54:22.310Z,13.45
2018-03-04T15:56:50.048Z,13.45
2018-03-04T15:59:17.940Z,13.01
2018-03-04T16:01:45.696Z,12.94
2018-03-04T16:04:13.570Z,12.88
2018-03-04T16:06:41.404Z,13.03
2018-03-04T16:09:09.145Z,13.00
2018-03-04T16:11:37.591Z,12.88
2018-03-04T16:14:05.462Z,12.92
2018-03-04T16:16:33.309Z,12.66
2018-03-04T16:19:01.182Z,12.58
2018-03-04T16:21:28.940Z,12.39
2018-03-04T16:23:56.676Z,12.10
2018-03-04T16:26:24.414Z,12.18
2018-03-04T16:28:52.181Z,12.23
2018-03-04T16:31:19.995Z,12.34
2018-03-04T16:33:47.893Z,12.39
2018-03-04T16:36:15.722Z,12.29
2018-03-04T16:38:43.486Z,12.12
2018-03-04T16:41:11.339Z,11.88
2018-03-04T16:43:39.183Z,11.58
2018-03-04T16:46:06.981Z,11.26
2018-03-04T16:48:34.749Z,11.15
2018-03-04T16:51:02.611Z,11.22
2018-03-04T16:53:30.405Z,11.25
2018-03-04T16:55:58.053Z,10.83
2018-03-04T16:58:25.910Z,10.83
2018-03-04T17:00:53.766Z,11.02
2018-03-04T17:03:21.532Z,10.98
2018-03-04T17:05:49.306Z,10.65
2018-03-04T17:08:17.123Z,10.58
2018-03-04T17:10:44.961Z,10.83
2018-03-04T17:13:12.757Z,10.65
2018-03-04T17:15:40.551Z,10.50
2018-03-04T17:18:08.316Z,10.49
2018-03-04T17:20:36.179Z,10.59
2018-03-04T17:23:04.364Z,10.62
2018-03-04T17:25:32.116Z,10.59
2018-03-04T17:27:59.883Z,10.34
2018-03-04T17:30:27.600Z,10.27
2018-03-04T17:32:55.304Z,10.20
2018-03-04T17:35:23.170Z,9.97
2018-03-04T17:37:50.932Z,9.96
2018-03-04T17:40:18.800Z,9.69
2018-03-04T17:42:46.665Z,9.79
2018-03-04T17:45:14.537Z,9.53
2018-03-04T17:47:42.294Z,9.51
2018-03-04T17:50:10.162Z,9.53
2018-03-04T17:52:37.874Z,9.45
2018-03-04T17:55:05.644Z,9.78
2018-03-04T17:57:33.554Z,9.50
2018-03-04T18:00:01.325Z,9.50
2018-03-04T18:02:29.080Z,9.27
2018-03-04T18:04:56.950Z,9.38
2018-03-04T18:07:24.709Z,9.25
2018-03-04T18:09:52.473Z,9.10
2018-03-04T18:12:20.336Z,9.14
2018-03-04T18:14:48.101Z,9.14
2018-03-04T18:17:15.818Z,9.05
2018-03-04T18:19:43.585Z,9.03
2018-03-04T18:22:11.394Z,9.18
2018-03-04T18:24:39.056Z,9.23
2018-03-04T18:27:06.887Z,9.08
2018-03-04T18:29:34.652Z,9.06
2018-03-04T18:32:02.419Z,9.08
2018-03-04T18:34:30.216Z,9.21
2018-03-04T18:36:58.028Z,8.99
2018-03-04T18:39:25.836Z,9.07
2018-03-04T18:41:53.703Z,8.74
2018-03-04T18:44:21.476Z,8.84
2018-03-04T18:46:49.332Z,8.75
2018-03-04T18:49:17.681Z,8.88
2018-03-04T18:51:45.425Z,8.98
2018-03-04T18:54:13.237Z,9.33
2018-03-04T18:56:41.104Z,9.22
2018-03-04T18:59:08.868Z,9.27
2018-03-04T19:01:36.733Z,9.40
2018-03-04T19:04:04.501Z,9.54
2018-03-04T19:06:32.258Z,9.18
2018-03-04T19:08:59.927Z,9.46
2018-03-04T19:11:27.660Z,9.56
2018-03-04T19:13:55.352Z,9.78
2018-03-04T19:16:23.069Z,9.87
2018-03-04T19:18:50.874Z,9.85
2018-03-04T19:21:18.703Z,9.72
2018-03-04T19:23:46.411Z,9.68
2018-03-04T19:26:14.265Z,9.63
2018-03-04T19:28:42.130Z,9.37
2018-03-04T19:31:09.910Z,9.40
2018-03-04T19:33:37.657Z,9.61
2018-03-04T19:36:05.421Z,9.80
2018-03-04T19:38:33.184Z,9.87
2018-03-04T19:41:01.051Z,9.80
2018-03-04T19:43:28.882Z,9.91
2018-03-04T19:45:56.780Z,9.90
2018-03-04T19:48:24.649Z,9.78
2018-03-04T19:50:52.512Z,9.98
2018-03-04T19:53:20.219Z,9.62
2018-03-04T19:55:48.143Z,9.87
2018-03-04T19:58:15.854Z,9.95
2018-03-04T20:00:43.668Z,9.76
2018-03-04T20:03:11.535Z,9.27
2018-03-04T20:05:39.299Z,8.80
2018-03-04T20:08:06.969Z,9.01
2018-03-04T20:10:34.824Z,8.88
2018-03-04T20:13:02.558Z,8.92
2018-03-04T20:15:30.351Z,8.76
2018-03-04T20:17:58.119Z,8.91
2018-03-04T20:20:25.885Z,8.74
2018-03-04T20:22:53.641Z,8.97
2018-03-04T20:25:21.414Z,9.37
2018-03-04T20:27:49.129Z,8.96
2018-03-04T20:30:16.934Z,8.98
2018-03-04T20:32:44.798Z,9.13
2018-03-04T20:35:12.630Z,8.63
2018-03-04T20:37:40.428Z,8.69
2018-03-04T20:40:08.294Z,8.65
2018-03-04T20:42:36.061Z,8.34
2018-03-04T20:45:03.923Z,8.23
2018-03-04T20:47:31.788Z,8.37
2018-03-04T20:49:59.653Z,8.19
2018-03-04T20:52:27.370Z,8.31
2018-03-04T20:54:55.289Z,8.00
2018-03-04T20:57:22.947Z,8.10
2018-03-04T20:59:50.811Z,8.01
2018-03-04T21:02:18.664Z,7.99
2018-03-04T21:04:46.543Z,8.06
2018-03-04T21:07:14.372Z,7.93
2018-03-04T21:09:42.239Z,7.72
2018-03-04T21:12:09.938Z,7.77
2018-03-04T21:14:37.698Z,8.17
2018-03-04T21:17:05.563Z,8.34
2018-03-04T21:19:33.328Z,8.11
2018-03-04T21:22:01.090Z,8.43
2018-03-04T21:24:28.957Z,8.29
2018-03-04T21:26:56.720Z,8.25
2018-03-04T21:29:24.608Z,8.27
2018-03-04T21:31:52.450Z,8.25
2018-03-04T21:34:20.215Z,8.20
2018-03-04T21:36:47.978Z,8.28
2018-03-04T21:39:15.844Z,8.34
2018-03-04T21:41:43.516Z,8.28
2018-03-04T21:44:11.273Z,8.07
2018-03-04T21:46:39.064Z,7.96
2018-03-04T21:49:06.804Z,7.97
2018-03-04T21:51:34.565Z,7.78
2018-03-04T21:54:02.389Z,7.61
2018-03-04T21:56:30.199Z,7.48
2018-03-04T21:58:57.960Z,7.34
2018-03-04T22:01:25.727Z,7.40
2018-03-04T22:03:53.531Z,7.62
2018-03-04T22:06:21.343Z,7.72
2018-03-04T22:08:49.141Z,7.64
2018-03-04T22:11:17.034Z,7.64
2018-03-04T22:13:44.922Z,7.49
2018-03-04T22:16:13.342Z,7.20
2018-03-04T22:18:41.093Z,7.85
2018-03-04T22:21:08.950Z,7.66
2018-03-04T22:23:36.790Z,7.39
2018-03-04T22:26:05.190Z,7.19
2018-03-04T22:28:33.066Z,7.11
2018-03-04T22:31:00.831Z,7.17
2018-03-04T22:33:28.658Z,7.22
2018-03-04T22:35:56.351Z,7.52
2018-03-04T22:38:24.314Z,7.63
2018-03-04T22:40:52.183Z,7.13
2018-03-04T22:43:19.946Z,6.93
2018-03-04T22:45:47.812Z,6.82
2018-03-04T22:48:15.677Z,6.76
2018-03-04T22:50:43.542Z,7.03
2018-03-04T22:53:11.365Z,6.99
2018-03-04T22:55:39.068Z,6.77
2018-03-04T22:58:06.838Z,6.72
2018-03-04T23:00:34.598Z,6.82
2018-03-04T23:03:02.463Z,6.32
2018-03-04T23:05:30.298Z,6.26
2018-03-04T23:07:58.296Z,6.36
2018-03-04T23:10:26.160Z,6.61
2018-03-04T23:12:53.924Z,6.64
2018-03-04T23:15:21.789Z,6.49
2018-03-04T23:17:49.567Z,6.48
2018-03-04T23:20:17.332Z,6.60
2018-03-04T23:22:45.183Z,6.33
2018-03-04T23:25:12.906Z,6.35
2018-03-04T23:27:40.585Z,6.39
2018-03-04T23:30:08.476Z,6.88
2018-03-04T23:32:36.143Z,6.54
2018-03-04T23:35:04.000Z,6.53
2018-03-04T23:37:31.839Z,6.51
2018-03-04T23:39:59.544Z,6.51
2018-03-04T23:42:27.393Z,6.27
2018-03-04T23:44:55.259Z,6.37
2018-03-04T23:47:22.980Z,6.73
2018-03-04T23:49:50.703Z,6.38
2018-03-04T23:52:18.456Z,6.15
2018-03-04T23:54:46.215Z,6.24
2018-03-04T23:57:14.075Z,6.35
2018-03-04T23:59:41.865Z,6.03
